sensor_id;sensor_type;location;lat;lon;timestamp;temperature;humidity
37874;DHT22;23709;48.078;11.684;2023-04-06T00:00:43;0.20;99.90
37874;DHT22;23709;48.078;11.684;2023-04-06T00:03:15;0.00;99.90
37874;DHT22;23709;48.078;11.684;2023-04-06T00:05:48;0.10;99.90
37874;DHT22;23709;48.078;11.684;2023-04-06T00:08:20;0.10;99.90
37874;DHT22;23709;48.078;11.684;2023-04-06T00:10:53;0.10;99.90
37874;DHT22;23709;48.078;11.684;2023-04-06T00:13:27;0.00;99.90
37874;DHT22;23709;48.078;11.684;2023-04-06T00:15:59;-0.10;99.90
37874;DHT22;23709;48.078;11.684;2023-04-06T00:18:32;-0.10;99.90
37874;DHT22;23709;48.078;11.684;2023-04-06T00:21:04;-0.10;99.90
37874;DHT22;23709;48.078;11.684;2023-04-06T00:23:37;-0.10;99.90
37874;DHT22;23709;48.078;11.684;2023-04-06T00:26:09;-0.10;99.90
37874;DHT22;23709;48.078;11.684;2023-04-06T00:28:44;-0.10;99.90
37874;DHT22;23709;48.078;11.684;2023-04-06T00:31:17;-0.10;99.90
37874;DHT22;23709;48.078;11.684;2023-04-06T00:33:49;0.00;99.90
37874;DHT22;23709;48.078;11.684;2023-04-06T00:36:22;-0.10;99.90
37874;DHT22;23709;48.078;11.684;2023-04-06T00:38:54;-0.10;99.90
37874;DHT22;23709;48.078;11.684;2023-04-06T00:41:27;-0.10;99.90
37874;DHT22;23709;48.078;11.684;2023-04-06T00:43:59;-0.10;99.90
37874;DHT22;23709;48.078;11.684;2023-04-06T00:46:31;-0.20;99.90
37874;DHT22;23709;48.078;11.684;2023-04-06T00:49:03;-0.20;99.90
37874;DHT22;23709;48.078;11.684;2023-04-06T00:51:36;-0.20;99.90
37874;DHT22;23709;48.078;11.684;2023-04-06T00:54:08;-0.20;99.90
37874;DHT22;23709;48.078;11.684;2023-04-06T00:56:41;-0.20;99.90
37874;DHT22;23709;48.078;11.684;2023-04-06T00:59:14;-0.30;99.90
37874;DHT22;23709;48.078;11.684;2023-04-06T01:01:47;-0.20;99.90
37874;DHT22;23709;48.078;11.684;2023-04-06T01:04:34;-0.30;99.90
37874;DHT22;23709;48.078;11.684;2023-04-06T01:07:08;-0.20;99.90
37874;DHT22;23709;48.078;11.684;2023-04-06T01:09:47;-0.40;99.90
37874;DHT22;23709;48.078;11.684;2023-04-06T01:12:26;-0.50;99.90
37874;DHT22;23709;48.078;11.684;2023-04-06T01:14:59;-0.50;99.90
37874;DHT22;23709;48.078;11.684;2023-04-06T01:17:33;-0.40;99.90
37874;DHT22;23709;48.078;11.684;2023-04-06T01:20:13;-0.40;99.90
37874;DHT22;23709;48.078;11.684;2023-04-06T01:22:46;-0.50;99.90
37874;DHT22;23709;48.078;11.684;2023-04-06T01:25:19;-0.60;99.90
37874;DHT22;23709;48.078;11.684;2023-04-06T01:28:11;-0.60;99.90
37874;DHT22;23709;48.078;11.684;2023-04-06T01:31:00;-0.40;99.90
37874;DHT22;23709;48.078;11.684;2023-04-06T01:33:44;-0.40;99.90
37874;DHT22;23709;48.078;11.684;2023-04-06T01:36:20;-0.40;99.90
37874;DHT22;23709;48.078;11.684;2023-04-06T01:38:59;-0.40;99.90
37874;DHT22;23709;48.078;11.684;2023-04-06T01:41:38;-0.50;99.90
37874;DHT22;23709;48.078;11.684;2023-04-06T01:44:10;-0.50;99.90
37874;DHT22;23709;48.078;11.684;2023-04-06T01:46:43;-0.50;99.90
37874;DHT22;23709;48.078;11.684;2023-04-06T01:49:20;-0.40;99.90
37874;DHT22;23709;48.078;11.684;2023-04-06T01:51:57;-0.40;99.90
37874;DHT22;23709;48.078;11.684;2023-04-06T01:54:29;-0.40;99.90
37874;DHT22;23709;48.078;11.684;2023-04-06T01:57:18;-0.30;99.90
37874;DHT22;23709;48.078;11.684;2023-04-06T01:59:55;-0.50;99.90
37874;DHT22;23709;48.078;11.684;2023-04-06T02:02:44;-0.60;99.90
37874;DHT22;23709;48.078;11.684;2023-04-06T02:05:24;-0.70;99.90
37874;DHT22;23709;48.078;11.684;2023-04-06T02:07:58;-0.70;99.90
37874;DHT22;23709;48.078;11.684;2023-04-06T02:10:36;-0.70;99.90
37874;DHT22;23709;48.078;11.684;2023-04-06T02:13:17;-0.60;99.90
37874;DHT22;23709;48.078;11.684;2023-04-06T02:15:52;-0.40;99.90
37874;DHT22;23709;48.078;11.684;2023-04-06T02:18:25;-0.40;99.90
37874;DHT22;23709;48.078;11.684;2023-04-06T02:20:57;-0.40;99.90
37874;DHT22;23709;48.078;11.684;2023-04-06T02:23:32;-0.40;99.90
37874;DHT22;23709;48.078;11.684;2023-04-06T02:26:04;-0.40;99.90
37874;DHT22;23709;48.078;11.684;2023-04-06T02:28:37;-0.50;99.90
37874;DHT22;23709;48.078;11.684;2023-04-06T02:31:09;-0.60;99.90
37874;DHT22;23709;48.078;11.684;2023-04-06T02:33:41;-0.60;99.90
37874;DHT22;23709;48.078;11.684;2023-04-06T02:36:14;-0.50;99.90
37874;DHT22;23709;48.078;11.684;2023-04-06T02:38:47;-0.50;99.90
37874;DHT22;23709;48.078;11.684;2023-04-06T02:41:19;-0.50;99.90
37874;DHT22;23709;48.078;11.684;2023-04-06T02:43:51;-0.60;99.90
37874;DHT22;23709;48.078;11.684;2023-04-06T02:46:34;-0.70;99.90
37874;DHT22;23709;48.078;11.684;2023-04-06T02:49:07;-0.60;99.90
37874;DHT22;23709;48.078;11.684;2023-04-06T02:51:40;-0.50;99.90
37874;DHT22;23709;48.078;11.684;2023-04-06T02:54:22;-0.50;99.90
37874;DHT22;23709;48.078;11.684;2023-04-06T02:56:54;-0.60;99.90
37874;DHT22;23709;48.078;11.684;2023-04-06T02:59:31;-0.80;99.90
37874;DHT22;23709;48.078;11.684;2023-04-06T03:02:12;-0.80;99.90
37874;DHT22;23709;48.078;11.684;2023-04-06T03:04:47;-0.70;99.90
37874;DHT22;23709;48.078;11.684;2023-04-06T03:07:31;-0.70;99.90
37874;DHT22;23709;48.078;11.684;2023-04-06T03:10:04;-0.70;99.90
37874;DHT22;23709;48.078;11.684;2023-04-06T03:12:37;-0.70;99.90
37874;DHT22;23709;48.078;11.684;2023-04-06T03:15:35;-0.70;99.90
37874;DHT22;23709;48.078;11.684;2023-04-06T03:18:24;-0.70;99.90
37874;DHT22;23709;48.078;11.684;2023-04-06T03:20:58;-0.80;99.90
37874;DHT22;23709;48.078;11.684;2023-04-06T03:23:50;-0.80;99.90
37874;DHT22;23709;48.078;11.684;2023-04-06T03:26:23;-0.80;99.90
37874;DHT22;23709;48.078;11.684;2023-04-06T03:28:56;-0.80;99.90
37874;DHT22;23709;48.078;11.684;2023-04-06T03:31:33;-0.80;99.90
37874;DHT22;23709;48.078;11.684;2023-04-06T03:34:12;-0.80;99.90
37874;DHT22;23709;48.078;11.684;2023-04-06T03:36:47;-0.80;99.90
37874;DHT22;23709;48.078;11.684;2023-04-06T03:39:34;-0.90;99.90
37874;DHT22;23709;48.078;11.684;2023-04-06T03:42:08;-1.00;99.90
37874;DHT22;23709;48.078;11.684;2023-04-06T03:44:45;-1.10;99.90
37874;DHT22;23709;48.078;11.684;2023-04-06T03:47:18;-1.20;99.90
37874;DHT22;23709;48.078;11.684;2023-04-06T03:49:50;-1.20;99.90
37874;DHT22;23709;48.078;11.684;2023-04-06T03:52:23;-1.30;99.90
37874;DHT22;23709;48.078;11.684;2023-04-06T03:54:56;-1.30;99.90
37874;DHT22;23709;48.078;11.684;2023-04-06T03:57:28;-1.20;99.90
37874;DHT22;23709;48.078;11.684;2023-04-06T04:00:02;-1.10;99.90
37874;DHT22;23709;48.078;11.684;2023-04-06T04:02:43;-1.10;99.90
37874;DHT22;23709;48.078;11.684;2023-04-06T04:05:15;-1.10;99.90
37874;DHT22;23709;48.078;11.684;2023-04-06T04:07:47;-1.30;99.90
37874;DHT22;23709;48.078;11.684;2023-04-06T04:10:20;-1.30;99.90
37874;DHT22;23709;48.078;11.684;2023-04-06T04:12:52;-1.40;99.90
37874;DHT22;23709;48.078;11.684;2023-04-06T04:15:24;-1.40;99.90
37874;DHT22;23709;48.078;11.684;2023-04-06T04:17:56;-1.40;99.90
37874;DHT22;23709;48.078;11.684;2023-04-06T04:20:28;-1.40;99.90
37874;DHT22;23709;48.078;11.684;2023-04-06T04:23:01;-1.30;99.90
37874;DHT22;23709;48.078;11.684;2023-04-06T04:25:36;-1.40;99.90
37874;DHT22;23709;48.078;11.684;2023-04-06T04:28:08;-1.30;99.90
37874;DHT22;23709;48.078;11.684;2023-04-06T04:30:41;-1.30;99.90
37874;DHT22;23709;48.078;11.684;2023-04-06T04:33:15;-1.20;99.90
37874;DHT22;23709;48.078;11.684;2023-04-06T04:35:48;-1.20;99.90
37874;DHT22;23709;48.078;11.684;2023-04-06T04:38:24;-1.30;99.90
37874;DHT22;23709;48.078;11.684;2023-04-06T04:40:59;-1.30;99.90
37874;DHT22;23709;48.078;11.684;2023-04-06T04:43:31;-1.20;99.90
37874;DHT22;23709;48.078;11.684;2023-04-06T04:46:06;-1.20;99.90
37874;DHT22;23709;48.078;11.684;2023-04-06T04:48:44;-1.20;99.90
37874;DHT22;23709;48.078;11.684;2023-04-06T04:51:17;-1.40;99.90
37874;DHT22;23709;48.078;11.684;2023-04-06T04:53:58;-1.20;99.90
37874;DHT22;23709;48.078;11.684;2023-04-06T04:56:34;-1.10;99.90
37874;DHT22;23709;48.078;11.684;2023-04-06T04:59:29;-1.10;99.90
37874;DHT22;23709;48.078;11.684;2023-04-06T05:02:11;-1.20;99.90
37874;DHT22;23709;48.078;11.684;2023-04-06T05:04:53;-1.20;99.90
37874;DHT22;23709;48.078;11.684;2023-04-06T05:07:28;-1.20;99.90
37874;DHT22;23709;48.078;11.684;2023-04-06T05:10:04;-1.20;99.90
37874;DHT22;23709;48.078;11.684;2023-04-06T05:12:42;-1.20;99.90
37874;DHT22;23709;48.078;11.684;2023-04-06T05:15:15;-1.20;99.90
37874;DHT22;23709;48.078;11.684;2023-04-06T05:17:48;-1.20;99.90
37874;DHT22;23709;48.078;11.684;2023-04-06T05:20:24;-1.20;99.90
37874;DHT22;23709;48.078;11.684;2023-04-06T05:22:57;-1.10;99.90
37874;DHT22;23709;48.078;11.684;2023-04-06T05:25:29;-1.00;99.90
37874;DHT22;23709;48.078;11.684;2023-04-06T05:28:09;-1.00;99.90
37874;DHT22;23709;48.078;11.684;2023-04-06T05:30:43;-1.00;99.90
37874;DHT22;23709;48.078;11.684;2023-04-06T05:33:17;-0.80;99.90
37874;DHT22;23709;48.078;11.684;2023-04-06T05:36:01;-0.70;99.90
37874;DHT22;23709;48.078;11.684;2023-04-06T05:38:33;-0.60;99.90
37874;DHT22;23709;48.078;11.684;2023-04-06T05:41:15;-0.60;99.90
37874;DHT22;23709;48.078;11.684;2023-04-06T05:43:47;-0.50;99.90
37874;DHT22;23709;48.078;11.684;2023-04-06T05:46:19;-0.50;99.90
37874;DHT22;23709;48.078;11.684;2023-04-06T05:48:52;-0.40;99.90
37874;DHT22;23709;48.078;11.684;2023-04-06T05:51:29;-0.30;99.90
37874;DHT22;23709;48.078;11.684;2023-04-06T05:54:01;-0.30;99.90
37874;DHT22;23709;48.078;11.684;2023-04-06T05:56:34;-0.20;99.90
37874;DHT22;23709;48.078;11.684;2023-04-06T05:59:07;-0.10;99.90
37874;DHT22;23709;48.078;11.684;2023-04-06T06:01:39;0.00;99.90
37874;DHT22;23709;48.078;11.684;2023-04-06T06:04:12;0.20;99.90
37874;DHT22;23709;48.078;11.684;2023-04-06T06:06:45;0.20;99.90
37874;DHT22;23709;48.078;11.684;2023-04-06T06:09:23;0.30;99.90
37874;DHT22;23709;48.078;11.684;2023-04-06T06:12:04;0.50;99.90
37874;DHT22;23709;48.078;11.684;2023-04-06T06:14:37;0.60;99.90
37874;DHT22;23709;48.078;11.684;2023-04-06T06:17:09;0.70;99.90
37874;DHT22;23709;48.078;11.684;2023-04-06T06:19:41;0.80;99.90
37874;DHT22;23709;48.078;11.684;2023-04-06T06:22:13;1.00;99.10
37874;DHT22;23709;48.078;11.684;2023-04-06T06:24:49;1.10;99.10
37874;DHT22;23709;48.078;11.684;2023-04-06T06:27:24;1.50;99.90
37874;DHT22;23709;48.078;11.684;2023-04-06T06:29:56;1.70;99.90
37874;DHT22;23709;48.078;11.684;2023-04-06T06:32:29;1.80;99.90
37874;DHT22;23709;48.078;11.684;2023-04-06T06:35:03;2.00;99.90
37874;DHT22;23709;48.078;11.684;2023-04-06T06:37:35;2.10;98.70
37874;DHT22;23709;48.078;11.684;2023-04-06T06:40:09;2.10;96.20
37874;DHT22;23709;48.078;11.684;2023-04-06T06:42:42;2.10;95.70
37874;DHT22;23709;48.078;11.684;2023-04-06T06:45:41;2.20;95.10
37874;DHT22;23709;48.078;11.684;2023-04-06T06:48:13;2.30;95.00
37874;DHT22;23709;48.078;11.684;2023-04-06T06:50:47;2.40;94.60
37874;DHT22;23709;48.078;11.684;2023-04-06T06:53:20;2.50;94.40
37874;DHT22;23709;48.078;11.684;2023-04-06T06:55:52;2.70;93.20
37874;DHT22;23709;48.078;11.684;2023-04-06T06:58:25;2.80;93.10
37874;DHT22;23709;48.078;11.684;2023-04-06T07:00:59;2.90;92.00
37874;DHT22;23709;48.078;11.684;2023-04-06T07:03:34;3.10;91.70
37874;DHT22;23709;48.078;11.684;2023-04-06T07:06:06;3.40;91.00
37874;DHT22;23709;48.078;11.684;2023-04-06T07:08:38;3.50;90.10
37874;DHT22;23709;48.078;11.684;2023-04-06T07:11:10;3.50;90.20
37874;DHT22;23709;48.078;11.684;2023-04-06T07:13:42;3.50;89.50
37874;DHT22;23709;48.078;11.684;2023-04-06T07:16:15;3.60;89.20
37874;DHT22;23709;48.078;11.684;2023-04-06T07:18:48;3.70;88.50
37874;DHT22;23709;48.078;11.684;2023-04-06T07:21:20;3.90;86.60
37874;DHT22;23709;48.078;11.684;2023-04-06T07:23:53;4.10;86.40
37874;DHT22;23709;48.078;11.684;2023-04-06T07:26:25;4.50;84.90
37874;DHT22;23709;48.078;11.684;2023-04-06T07:28:57;4.70;81.50
37874;DHT22;23709;48.078;11.684;2023-04-06T07:31:30;5.00;79.30
37874;DHT22;23709;48.078;11.684;2023-04-06T07:34:02;5.10;77.20
37874;DHT22;23709;48.078;11.684;2023-04-06T07:36:35;5.20;77.30
37874;DHT22;23709;48.078;11.684;2023-04-06T07:39:07;5.20;75.00
37874;DHT22;23709;48.078;11.684;2023-04-06T07:41:40;5.20;74.70
37874;DHT22;23709;48.078;11.684;2023-04-06T07:44:13;5.50;72.20
37874;DHT22;23709;48.078;11.684;2023-04-06T07:46:45;5.60;71.90
37874;DHT22;23709;48.078;11.684;2023-04-06T07:49:17;5.70;71.60
37874;DHT22;23709;48.078;11.684;2023-04-06T07:51:50;5.90;70.10
37874;DHT22;23709;48.078;11.684;2023-04-06T07:54:22;6.10;69.30
37874;DHT22;23709;48.078;11.684;2023-04-06T07:56:54;6.20;68.50
37874;DHT22;23709;48.078;11.684;2023-04-06T07:59:26;6.30;67.50
37874;DHT22;23709;48.078;11.684;2023-04-06T08:01:59;6.40;65.90
37874;DHT22;23709;48.078;11.684;2023-04-06T08:04:31;6.30;63.70
37874;DHT22;23709;48.078;11.684;2023-04-06T08:07:03;6.30;64.40
37874;DHT22;23709;48.078;11.684;2023-04-06T08:09:36;6.30;64.30
37874;DHT22;23709;48.078;11.684;2023-04-06T08:12:08;6.40;65.00
37874;DHT22;23709;48.078;11.684;2023-04-06T08:14:40;6.50;63.40
37874;DHT22;23709;48.078;11.684;2023-04-06T08:17:12;6.50;63.50
37874;DHT22;23709;48.078;11.684;2023-04-06T08:19:45;6.70;62.80
37874;DHT22;23709;48.078;11.684;2023-04-06T08:22:17;6.70;61.80
37874;DHT22;23709;48.078;11.684;2023-04-06T08:24:50;6.80;61.10
37874;DHT22;23709;48.078;11.684;2023-04-06T08:27:22;7.00;61.20
37874;DHT22;23709;48.078;11.684;2023-04-06T08:29:54;7.00;60.90
37874;DHT22;23709;48.078;11.684;2023-04-06T08:32:26;7.20;58.50
37874;DHT22;23709;48.078;11.684;2023-04-06T08:34:59;7.20;57.40
37874;DHT22;23709;48.078;11.684;2023-04-06T08:37:31;7.30;58.30
37874;DHT22;23709;48.078;11.684;2023-04-06T08:40:03;7.20;57.90
37874;DHT22;23709;48.078;11.684;2023-04-06T08:42:40;7.10;58.30
37874;DHT22;23709;48.078;11.684;2023-04-06T08:45:16;7.20;57.60
37874;DHT22;23709;48.078;11.684;2023-04-06T08:47:50;7.30;57.70
37874;DHT22;23709;48.078;11.684;2023-04-06T08:50:24;7.20;57.20
37874;DHT22;23709;48.078;11.684;2023-04-06T08:52:57;7.10;59.30
37874;DHT22;23709;48.078;11.684;2023-04-06T08:55:29;7.20;58.90
37874;DHT22;23709;48.078;11.684;2023-04-06T08:58:02;7.40;58.70
37874;DHT22;23709;48.078;11.684;2023-04-06T09:00:38;7.50;57.80
37874;DHT22;23709;48.078;11.684;2023-04-06T09:03:12;7.40;56.90
37874;DHT22;23709;48.078;11.684;2023-04-06T09:05:46;7.40;56.40
37874;DHT22;23709;48.078;11.684;2023-04-06T09:08:19;7.40;56.30
37874;DHT22;23709;48.078;11.684;2023-04-06T09:10:52;7.40;55.70
37874;DHT22;23709;48.078;11.684;2023-04-06T09:13:24;7.30;55.60
37874;DHT22;23709;48.078;11.684;2023-04-06T09:16:04;7.50;56.10
37874;DHT22;23709;48.078;11.684;2023-04-06T09:18:38;7.60;55.80
37874;DHT22;23709;48.078;11.684;2023-04-06T09:21:10;7.60;56.20
37874;DHT22;23709;48.078;11.684;2023-04-06T09:23:42;7.80;55.40
37874;DHT22;23709;48.078;11.684;2023-04-06T09:26:17;7.80;54.50
37874;DHT22;23709;48.078;11.684;2023-04-06T09:28:54;7.80;54.50
37874;DHT22;23709;48.078;11.684;2023-04-06T09:31:28;7.80;54.80
37874;DHT22;23709;48.078;11.684;2023-04-06T09:34:01;7.90;55.80
37874;DHT22;23709;48.078;11.684;2023-04-06T09:36:35;7.90;55.50
37874;DHT22;23709;48.078;11.684;2023-04-06T09:39:10;7.80;54.30
37874;DHT22;23709;48.078;11.684;2023-04-06T09:41:50;8.00;55.40
37874;DHT22;23709;48.078;11.684;2023-04-06T09:44:22;8.00;54.60
37874;DHT22;23709;48.078;11.684;2023-04-06T09:46:56;8.10;55.10
37874;DHT22;23709;48.078;11.684;2023-04-06T09:49:33;8.30;56.00
37874;DHT22;23709;48.078;11.684;2023-04-06T09:52:06;8.40;55.40
37874;DHT22;23709;48.078;11.684;2023-04-06T09:54:41;8.30;54.70
37874;DHT22;23709;48.078;11.684;2023-04-06T09:57:25;8.40;54.10
37874;DHT22;23709;48.078;11.684;2023-04-06T10:00:07;8.60;53.00
37874;DHT22;23709;48.078;11.684;2023-04-06T10:05:33;8.70;52.40
37874;DHT22;23709;48.078;11.684;2023-04-06T10:08:11;8.90;52.50
37874;DHT22;23709;48.078;11.684;2023-04-06T10:10:44;9.00;52.60
37874;DHT22;23709;48.078;11.684;2023-04-06T10:13:18;9.10;51.60
37874;DHT22;23709;48.078;11.684;2023-04-06T10:15:52;8.90;51.70
37874;DHT22;23709;48.078;11.684;2023-04-06T10:18:24;8.90;52.80
37874;DHT22;23709;48.078;11.684;2023-04-06T10:21:08;8.90;52.40
37874;DHT22;23709;48.078;11.684;2023-04-06T10:23:53;8.90;51.90
37874;DHT22;23709;48.078;11.684;2023-04-06T10:26:26;9.10;53.60
37874;DHT22;23709;48.078;11.684;2023-04-06T10:29:03;9.20;51.70
37874;DHT22;23709;48.078;11.684;2023-04-06T10:31:40;9.20;52.10
37874;DHT22;23709;48.078;11.684;2023-04-06T10:34:13;9.30;51.10
37874;DHT22;23709;48.078;11.684;2023-04-06T10:36:47;9.10;50.20
37874;DHT22;23709;48.078;11.684;2023-04-06T10:39:24;9.40;51.60
37874;DHT22;23709;48.078;11.684;2023-04-06T10:42:06;9.60;49.60
37874;DHT22;23709;48.078;11.684;2023-04-06T10:44:42;9.80;51.60
37874;DHT22;23709;48.078;11.684;2023-04-06T10:47:17;10.10;51.10
37874;DHT22;23709;48.078;11.684;2023-04-06T10:49:52;10.40;49.60
37874;DHT22;23709;48.078;11.684;2023-04-06T10:52:24;10.60;48.30
37874;DHT22;23709;48.078;11.684;2023-04-06T10:54:57;10.50;47.50
37874;DHT22;23709;48.078;11.684;2023-04-06T10:57:29;10.60;49.00
37874;DHT22;23709;48.078;11.684;2023-04-06T11:00:05;10.50;48.50
37874;DHT22;23709;48.078;11.684;2023-04-06T11:02:37;10.50;48.40
37874;DHT22;23709;48.078;11.684;2023-04-06T11:05:11;10.60;50.00
37874;DHT22;23709;48.078;11.684;2023-04-06T11:07:44;10.70;49.50
37874;DHT22;23709;48.078;11.684;2023-04-06T11:10:21;10.70;49.80
37874;DHT22;23709;48.078;11.684;2023-04-06T11:12:54;10.80;48.00
37874;DHT22;23709;48.078;11.684;2023-04-06T11:15:33;10.70;47.80
37874;DHT22;23709;48.078;11.684;2023-04-06T11:18:08;10.70;48.90
37874;DHT22;23709;48.078;11.684;2023-04-06T11:20:47;10.80;48.80
37874;DHT22;23709;48.078;11.684;2023-04-06T11:23:24;10.90;48.30
37874;DHT22;23709;48.078;11.684;2023-04-06T11:25:59;11.30;48.70
37874;DHT22;23709;48.078;11.684;2023-04-06T11:28:32;11.50;46.50
37874;DHT22;23709;48.078;11.684;2023-04-06T11:31:05;11.50;47.30
37874;DHT22;23709;48.078;11.684;2023-04-06T11:33:38;11.60;46.90
37874;DHT22;23709;48.078;11.684;2023-04-06T11:36:10;11.50;46.60
37874;DHT22;23709;48.078;11.684;2023-04-06T11:38:45;11.70;46.50
37874;DHT22;23709;48.078;11.684;2023-04-06T11:41:18;11.90;47.30
37874;DHT22;23709;48.078;11.684;2023-04-06T11:43:50;12.30;48.50
37874;DHT22;23709;48.078;11.684;2023-04-06T11:46:22;12.90;46.60
37874;DHT22;23709;48.078;11.684;2023-04-06T11:48:58;13.10;43.30
37874;DHT22;23709;48.078;11.684;2023-04-06T11:51:35;12.80;44.50
37874;DHT22;23709;48.078;11.684;2023-04-06T11:54:07;12.30;43.10
37874;DHT22;23709;48.078;11.684;2023-04-06T11:56:40;12.20;44.50
37874;DHT22;23709;48.078;11.684;2023-04-06T11:59:12;12.30;44.50
37874;DHT22;23709;48.078;11.684;2023-04-06T12:01:45;13.00;44.80
37874;DHT22;23709;48.078;11.684;2023-04-06T12:04:17;13.30;42.20
37874;DHT22;23709;48.078;11.684;2023-04-06T12:06:49;13.90;42.60
37874;DHT22;23709;48.078;11.684;2023-04-06T12:09:22;14.30;41.10
37874;DHT22;23709;48.078;11.684;2023-04-06T12:11:54;14.50;42.20
37874;DHT22;23709;48.078;11.684;2023-04-06T12:14:27;14.30;40.40
37874;DHT22;23709;48.078;11.684;2023-04-06T12:16:59;14.00;39.90
37874;DHT22;23709;48.078;11.684;2023-04-06T12:19:32;13.80;40.80
37874;DHT22;23709;48.078;11.684;2023-04-06T12:22:04;13.70;41.40
37874;DHT22;23709;48.078;11.684;2023-04-06T12:24:37;14.20;41.30
37874;DHT22;23709;48.078;11.684;2023-04-06T12:27:09;14.10;40.00
37874;DHT22;23709;48.078;11.684;2023-04-06T12:29:43;14.10;40.90
37874;DHT22;23709;48.078;11.684;2023-04-06T12:32:15;13.70;40.90
37874;DHT22;23709;48.078;11.684;2023-04-06T12:34:47;13.10;40.40
37874;DHT22;23709;48.078;11.684;2023-04-06T12:37:19;13.20;43.60
37874;DHT22;23709;48.078;11.684;2023-04-06T12:39:52;13.40;40.50
37874;DHT22;23709;48.078;11.684;2023-04-06T12:42:24;13.50;41.30
37874;DHT22;23709;48.078;11.684;2023-04-06T12:44:56;13.50;42.10
37874;DHT22;23709;48.078;11.684;2023-04-06T12:47:28;14.00;41.40
37874;DHT22;23709;48.078;11.684;2023-04-06T12:50:01;14.70;42.10
37874;DHT22;23709;48.078;11.684;2023-04-06T12:52:33;15.30;40.00
37874;DHT22;23709;48.078;11.684;2023-04-06T12:55:08;15.90;40.40
37874;DHT22;23709;48.078;11.684;2023-04-06T12:57:40;15.80;37.60
37874;DHT22;23709;48.078;11.684;2023-04-06T13:00:13;15.90;37.60
37874;DHT22;23709;48.078;11.684;2023-04-06T13:02:46;15.70;36.50
37874;DHT22;23709;48.078;11.684;2023-04-06T13:05:19;16.00;38.10
37874;DHT22;23709;48.078;11.684;2023-04-06T13:07:51;16.40;36.60
37874;DHT22;23709;48.078;11.684;2023-04-06T13:10:23;15.80;35.70
37874;DHT22;23709;48.078;11.684;2023-04-06T13:12:55;15.00;37.40
37874;DHT22;23709;48.078;11.684;2023-04-06T13:15:27;14.60;40.00
37874;DHT22;23709;48.078;11.684;2023-04-06T13:17:59;14.60;39.50
37874;DHT22;23709;48.078;11.684;2023-04-06T13:20:32;14.90;40.50
37874;DHT22;23709;48.078;11.684;2023-04-06T13:23:04;15.50;40.20
37874;DHT22;23709;48.078;11.684;2023-04-06T13:25:37;15.90;38.40
37874;DHT22;23709;48.078;11.684;2023-04-06T13:28:09;16.10;37.30
37874;DHT22;23709;48.078;11.684;2023-04-06T13:30:42;16.10;36.60
37874;DHT22;23709;48.078;11.684;2023-04-06T13:33:14;16.50;36.70
37874;DHT22;23709;48.078;11.684;2023-04-06T13:35:47;16.70;35.90
37874;DHT22;23709;48.078;11.684;2023-04-06T13:38:19;16.30;37.30
37874;DHT22;23709;48.078;11.684;2023-04-06T13:40:51;17.10;37.30
37874;DHT22;23709;48.078;11.684;2023-04-06T13:43:24;16.90;35.70
37874;DHT22;23709;48.078;11.684;2023-04-06T13:45:58;16.60;36.60
37874;DHT22;23709;48.078;11.684;2023-04-06T13:48:32;16.40;38.40
37874;DHT22;23709;48.078;11.684;2023-04-06T13:51:09;16.60;36.70
37874;DHT22;23709;48.078;11.684;2023-04-06T13:53:41;16.00;36.30
37874;DHT22;23709;48.078;11.684;2023-04-06T13:56:14;15.60;37.50
37874;DHT22;23709;48.078;11.684;2023-04-06T13:58:46;15.30;38.40
37874;DHT22;23709;48.078;11.684;2023-04-06T14:01:18;14.80;37.90
37874;DHT22;23709;48.078;11.684;2023-04-06T14:03:50;14.70;39.50
37874;DHT22;23709;48.078;11.684;2023-04-06T14:06:23;15.20;38.30
37874;DHT22;23709;48.078;11.684;2023-04-06T14:09:02;15.80;40.10
37874;DHT22;23709;48.078;11.684;2023-04-06T14:11:34;16.10;36.30
37874;DHT22;23709;48.078;11.684;2023-04-06T14:14:07;16.20;36.80
37874;DHT22;23709;48.078;11.684;2023-04-06T14:16:42;15.70;35.90
37874;DHT22;23709;48.078;11.684;2023-04-06T14:19:20;15.00;37.20
37874;DHT22;23709;48.078;11.684;2023-04-06T14:21:55;14.80;38.30
37874;DHT22;23709;48.078;11.684;2023-04-06T14:24:28;14.90;36.80
37874;DHT22;23709;48.078;11.684;2023-04-06T14:27:00;14.30;36.70
37874;DHT22;23709;48.078;11.684;2023-04-06T14:29:32;13.90;38.70
37874;DHT22;23709;48.078;11.684;2023-04-06T14:32:05;13.90;39.70
37874;DHT22;23709;48.078;11.684;2023-04-06T14:34:37;14.00;41.50
37874;DHT22;23709;48.078;11.684;2023-04-06T14:37:10;14.00;39.70
37874;DHT22;23709;48.078;11.684;2023-04-06T14:39:43;14.30;40.00
37874;DHT22;23709;48.078;11.684;2023-04-06T14:42:16;15.00;40.10
37874;DHT22;23709;48.078;11.684;2023-04-06T14:44:49;15.10;37.70
37874;DHT22;23709;48.078;11.684;2023-04-06T14:47:22;15.00;38.80
37874;DHT22;23709;48.078;11.684;2023-04-06T14:49:54;14.80;38.40
37874;DHT22;23709;48.078;11.684;2023-04-06T14:52:26;14.60;40.10
37874;DHT22;23709;48.078;11.684;2023-04-06T14:55:02;14.30;40.60
37874;DHT22;23709;48.078;11.684;2023-04-06T14:57:34;14.30;40.60
37874;DHT22;23709;48.078;11.684;2023-04-06T15:00:06;14.40;41.80
37874;DHT22;23709;48.078;11.684;2023-04-06T15:02:40;14.30;40.50
37874;DHT22;23709;48.078;11.684;2023-04-06T15:05:15;14.10;41.20
37874;DHT22;23709;48.078;11.684;2023-04-06T15:07:47;13.70;40.30
37874;DHT22;23709;48.078;11.684;2023-04-06T15:10:19;14.00;39.40
37874;DHT22;23709;48.078;11.684;2023-04-06T15:12:52;14.00;40.60
37874;DHT22;23709;48.078;11.684;2023-04-06T15:15:24;14.10;41.30
37874;DHT22;23709;48.078;11.684;2023-04-06T15:17:56;14.10;40.70
37874;DHT22;23709;48.078;11.684;2023-04-06T15:20:29;13.40;39.50
37874;DHT22;23709;48.078;11.684;2023-04-06T15:23:03;13.30;42.50
37874;DHT22;23709;48.078;11.684;2023-04-06T15:25:35;13.20;41.30
37874;DHT22;23709;48.078;11.684;2023-04-06T15:28:07;13.10;41.30
37874;DHT22;23709;48.078;11.684;2023-04-06T15:30:39;12.80;41.60
37874;DHT22;23709;48.078;11.684;2023-04-06T15:33:12;12.60;42.80
37874;DHT22;23709;48.078;11.684;2023-04-06T15:35:46;12.80;43.40
37874;DHT22;23709;48.078;11.684;2023-04-06T15:38:18;12.80;42.40
37874;DHT22;23709;48.078;11.684;2023-04-06T15:40:50;12.70;42.70
37874;DHT22;23709;48.078;11.684;2023-04-06T15:43:22;12.60;42.90
37874;DHT22;23709;48.078;11.684;2023-04-06T15:45:55;12.60;43.10
37874;DHT22;23709;48.078;11.684;2023-04-06T15:48:28;12.40;43.70
37874;DHT22;23709;48.078;11.684;2023-04-06T15:51:02;12.30;44.20
37874;DHT22;23709;48.078;11.684;2023-04-06T15:53:34;12.30;43.60
37874;DHT22;23709;48.078;11.684;2023-04-06T15:56:08;12.30;43.00
37874;DHT22;23709;48.078;11.684;2023-04-06T15:58:40;12.20;42.00
37874;DHT22;23709;48.078;11.684;2023-04-06T16:01:17;12.20;43.00
37874;DHT22;23709;48.078;11.684;2023-04-06T16:03:49;12.00;43.00
37874;DHT22;23709;48.078;11.684;2023-04-06T16:06:22;11.90;42.90